Hovedside
METAR-TAF:

METAR-TAF

Lufthavner :

Beijing internasjonale lufthavn

Beijing, Kina

breddegrad: 39-56N, lengdegrad: 116-17E, høyde over havet: 55 m

Gjeldene værobservasjon

Denne rapporten ble laget for 21 minutter siden, klokken 19:00 UTC
Vind 2 kt fra Øst
Temperatur 6°C
Luftfuktighet 75%
Trykk 1019 hPa
Sikt 10 km eller mer
Brutte skyer i en høyde av 3000 ft

METAR: ZBAA 151900Z 09001MPS 9999 BKN030 06/02 Q1019 NOSIG

Tid: 03:21 (19:21 UTC)

Varsel

Denne rapporten ble laget for 4 timer og 11 minutter siden, klokken 15:10 UTC
Varsel gyldig fra 15. klokken 18 UTC til 16. klokken 18 UTC
Vind 8 kt fra Sør-sørøst
Sikt 10 km eller mer
ingen skyer under 1500 m og ingen bygeskyer

TAF: ZBAA 151510Z 1518/1618 15004MPS CAVOK TX10/1607Z TN00/1521Z

Værobservasjoner og værvarsel for over 4000 flyplasser (METAR- og TAF-rapporter).

Tilgjengelige stasjoner er representert av de røde og gule prikkene på kartet.

Hold musepekeren over prikken for å se navnet på stasjonen.

Klikk så for å se værobservasjoner og -varsler.

For å forandre kartet kan du klikke på den grønne knappen med svart kryss for å zoome inn, på den grønne knappen med strek for å zoome ut, eller på de grønne pilene for å se tilstøtende kart.


METAR-TAF: